createdAt,value
2019-02-15T00:02:59.478Z,20.13
2019-02-15T00:07:11.892Z,17.50
2019-02-15T00:11:25.347Z,18.87
2019-02-15T00:15:37.657Z,20.33
2019-02-15T00:19:54.192Z,20.90
2019-02-15T00:24:06.636Z,20.00
2019-02-15T00:28:19.361Z,20.27
2019-02-15T00:32:31.823Z,21.57
2019-02-15T00:36:44.240Z,21.47
2019-02-15T00:40:57.131Z,21.20
2019-02-15T00:45:11.052Z,23.63
2019-02-15T00:49:31.620Z,21.27
2019-02-15T00:54:01.432Z,22.30
2019-02-15T00:58:44.464Z,20.60
2019-02-15T01:03:15.517Z,23.20
2019-02-15T01:07:53.125Z,22.10
2019-02-15T01:12:08.871Z,23.13
2019-02-15T01:16:21.557Z,21.73
2019-02-15T01:20:33.981Z,21.27
2019-02-15T01:24:46.489Z,20.27
2019-02-15T01:29:20.802Z,20.87
2019-02-15T01:34:02.937Z,21.37
2019-02-15T01:38:37.549Z,22.40
2019-02-15T01:43:03.114Z,21.97
2019-02-15T01:47:19.421Z,21.47
2019-02-15T01:51:32.119Z,21.13
2019-02-15T01:55:44.595Z,21.87
2019-02-15T01:59:57.316Z,21.23
2019-02-15T02:04:09.781Z,21.70
2019-02-15T02:08:25.476Z,21.80
2019-02-15T02:12:38.354Z,21.40
2019-02-15T02:16:50.809Z,21.17
2019-02-15T02:21:04.362Z,20.40
2019-02-15T02:25:16.765Z,20.47
2019-02-15T02:29:30.376Z,20.80
2019-02-15T02:33:42.613Z,19.80
2019-02-15T02:37:55.512Z,21.87
2019-02-15T02:42:07.871Z,21.27
2019-02-15T02:46:20.397Z,21.10
2019-02-15T02:50:33.333Z,20.80
2019-02-15T02:54:46.207Z,21.03
2019-02-15T02:58:58.923Z,22.10
2019-02-15T03:03:11.276Z,21.07
2019-02-15T03:07:23.694Z,20.33
2019-02-15T03:11:36.676Z,21.10
2019-02-15T03:15:49.147Z,21.87
2019-02-15T03:20:02.147Z,21.60
2019-02-15T03:24:14.692Z,21.97
2019-02-15T03:28:27.088Z,23.13
2019-02-15T03:32:39.892Z,23.30
2019-02-15T03:37:09.875Z,24.23
2019-02-15T03:41:33.854Z,25.30
2019-02-15T03:45:47.793Z,24.03
2019-02-15T03:50:00.636Z,22.70
2019-02-15T03:54:13.133Z,23.40
2019-02-15T03:58:25.540Z,22.33
2019-02-15T04:02:38.395Z,23.40
2019-02-15T04:06:50.903Z,22.43
2019-02-15T04:11:04.631Z,22.37
2019-02-15T04:15:16.952Z,21.80
2019-02-15T04:19:29.936Z,21.63
2019-02-15T04:23:42.400Z,21.50
2019-02-15T04:27:54.809Z,22.17
2019-02-15T04:32:08.336Z,19.43
2019-02-15T04:36:20.703Z,21.27
2019-02-15T04:40:33.556Z,20.90
2019-02-15T04:44:46.008Z,21.77
2019-02-15T04:48:59.679Z,21.10
2019-02-15T04:53:12.134Z,19.50
2019-02-15T04:57:24.851Z,20.07
2019-02-15T05:01:37.368Z,19.80
2019-02-15T05:05:49.616Z,18.97
2019-02-15T05:10:02.405Z,20.03
2019-02-15T05:14:14.966Z,20.13
2019-02-15T05:18:27.382Z,20.90
2019-02-15T05:22:40.163Z,19.77
2019-02-15T05:26:52.624Z,18.57
2019-02-15T05:31:05.032Z,19.43
2019-02-15T05:35:17.993Z,22.67
2019-02-15T05:39:30.589Z,19.50
2019-02-15T05:43:42.896Z,20.47
2019-02-15T05:47:55.887Z,19.60
2019-02-15T05:52:08.517Z,18.50
2019-02-15T05:56:21.338Z,20.80
2019-02-15T06:00:37.129Z,19.00
2019-02-15T06:04:47.705Z,19.83
2019-02-15T06:09:00.320Z,19.43
2019-02-15T06:13:12.893Z,18.17
2019-02-15T06:17:25.303Z,18.50
2019-02-15T06:21:38.190Z,18.87
2019-02-15T06:25:50.641Z,18.43
2019-02-15T06:30:03.102Z,18.23
2019-02-15T06:34:15.845Z,19.57
2019-02-15T06:38:34.609Z,17.87
2019-02-15T06:42:42.820Z,18.10
2019-02-15T06:46:55.281Z,19.67
2019-02-15T06:51:07.795Z,19.17
2019-02-15T06:55:20.751Z,19.40
2019-02-15T06:59:43.383Z,19.30
2019-02-15T07:04:13.596Z,17.20
2019-02-15T07:08:26.366Z,18.43
2019-02-15T07:12:38.951Z,19.03
2019-02-15T07:16:51.373Z,18.67
2019-02-15T07:21:04.273Z,19.17
2019-02-15T07:25:16.713Z,17.77
2019-02-15T07:29:29.705Z,19.30
2019-02-15T07:33:42.262Z,18.23
2019-02-15T07:37:54.685Z,19.67
2019-02-15T07:42:07.628Z,20.00
2019-02-15T07:46:20.844Z,19.07
2019-02-15T07:50:34.816Z,19.63
2019-02-15T07:54:47.588Z,19.20
2019-02-15T07:59:00.403Z,20.47
2019-02-15T08:03:12.961Z,21.33
2019-02-15T08:07:25.269Z,22.00
2019-02-15T08:11:38.238Z,18.83
2019-02-15T08:15:52.170Z,21.67
2019-02-15T08:20:04.670Z,20.60
2019-02-15T08:24:17.556Z,21.73
2019-02-15T08:28:30.112Z,20.77
2019-02-15T08:32:42.527Z,21.23
2019-02-15T08:36:54.852Z,19.97
2019-02-15T08:41:07.734Z,19.17
2019-02-15T08:45:20.261Z,19.07
2019-02-15T08:49:33.186Z,18.83
2019-02-15T08:53:45.807Z,18.57
2019-02-15T08:57:58.049Z,18.10
2019-02-15T09:02:22.943Z,18.90
2019-02-15T09:06:35.480Z,18.37
2019-02-15T09:10:47.895Z,19.20
2019-02-15T09:15:00.909Z,17.90
2019-02-15T09:19:13.449Z,18.00
2019-02-15T09:23:25.855Z,17.63
2019-02-15T09:27:53.892Z,17.93
2019-02-15T09:32:07.640Z,16.73
2019-02-15T09:36:20.101Z,15.20
2019-02-15T09:40:33.099Z,16.23
2019-02-15T09:44:45.656Z,16.20
2019-02-15T09:48:58.153Z,15.47
2019-02-15T09:53:10.976Z,15.83
2019-02-15T09:57:23.412Z,14.73
2019-02-15T10:01:36.412Z,14.53
2019-02-15T10:05:48.960Z,14.50
2019-02-15T10:10:01.951Z,14.57
2019-02-15T10:14:14.505Z,14.17
2019-02-15T10:18:26.992Z,14.30
2019-02-15T10:22:39.716Z,13.63
2019-02-15T10:26:52.285Z,13.73
2019-02-15T10:31:05.153Z,13.97
2019-02-15T10:35:17.707Z,13.50
2019-02-15T10:39:31.251Z,13.53
2019-02-15T10:43:43.664Z,14.17
2019-02-15T10:47:56.455Z,14.23
2019-02-15T10:52:09.075Z,13.67
2019-02-15T10:56:22.063Z,13.30
2019-02-15T11:00:34.763Z,13.27
2019-02-15T11:04:47.174Z,13.27
2019-02-15T11:08:59.977Z,12.77
2019-02-15T11:13:12.421Z,12.60
2019-02-15T11:17:24.734Z,11.83
2019-02-15T11:21:38.233Z,12.03
2019-02-15T11:25:50.486Z,12.57
2019-02-15T11:30:03.271Z,12.77
2019-02-15T11:34:15.623Z,12.47
2019-02-15T11:38:28.045Z,11.77
2019-02-15T11:42:40.938Z,11.80
2019-02-15T11:46:56.729Z,11.63
2019-02-15T11:51:07.461Z,12.73
2019-02-15T11:55:20.383Z,13.73
2019-02-15T11:59:32.877Z,13.87
2019-02-15T12:03:45.300Z,13.07
2019-02-15T12:07:58.092Z,14.30
2019-02-15T12:12:11.127Z,14.40
2019-02-15T12:16:23.879Z,14.63
2019-02-15T12:20:36.300Z,14.47
2019-02-15T12:24:48.790Z,13.67
2019-02-15T12:29:02.053Z,15.07
2019-02-15T12:33:14.462Z,15.23
2019-02-15T12:37:27.258Z,14.57
2019-02-15T12:41:39.706Z,14.97
2019-02-15T12:45:52.116Z,15.47
2019-02-15T12:50:05.000Z,14.80
2019-02-15T12:54:17.549Z,14.73
2019-02-15T12:58:30.093Z,15.37
2019-02-15T13:02:42.862Z,15.03
2019-02-15T13:06:55.221Z,13.93
2019-02-15T13:11:08.303Z,14.60
2019-02-15T13:15:20.768Z,13.60
2019-02-15T13:19:34.308Z,15.20
2019-02-15T13:23:46.623Z,15.13
2019-02-15T13:27:59.684Z,13.37
2019-02-15T13:32:12.172Z,14.27
2019-02-15T13:36:24.582Z,14.33
2019-02-15T13:40:37.475Z,14.53
2019-02-15T13:44:49.941Z,15.07
2019-02-15T13:49:02.920Z,14.10
2019-02-15T13:53:15.496Z,15.07
2019-02-15T13:57:29.051Z,15.40
2019-02-15T14:01:41.388Z,14.60
2019-02-15T14:05:53.636Z,16.83
2019-02-15T14:10:06.426Z,15.03
2019-02-15T14:14:18.789Z,15.47
2019-02-15T14:18:31.193Z,13.83
2019-02-15T14:22:44.084Z,13.80
2019-02-15T14:26:56.535Z,14.80
2019-02-15T14:31:08.947Z,14.67
2019-02-15T14:35:21.750Z,13.13
2019-02-15T14:39:35.485Z,14.00
2019-02-15T14:43:47.951Z,14.00
2019-02-15T14:48:00.250Z,14.00
2019-02-15T14:52:13.166Z,13.97
2019-02-15T14:56:25.840Z,15.27
2019-02-15T15:00:39.004Z,14.23
2019-02-15T15:04:51.427Z,14.43
2019-02-15T15:09:04.917Z,14.20
2019-02-15T15:13:17.779Z,14.00
2019-02-15T15:17:30.349Z,14.30
2019-02-15T15:21:43.332Z,13.70
2019-02-15T15:25:55.900Z,13.63
2019-02-15T15:30:09.394Z,12.63
2019-02-15T15:34:21.823Z,12.73
2019-02-15T15:38:35.546Z,11.97
2019-02-15T15:42:48.268Z,11.57
2019-02-15T15:47:00.638Z,11.80
2019-02-15T15:51:13.617Z,12.67
2019-02-15T15:55:26.297Z,10.80
2019-02-15T15:59:38.862Z,10.63
2019-02-15T16:03:51.585Z,12.20
2019-02-15T16:08:04.861Z,12.40
2019-02-15T16:12:17.485Z,11.33
2019-02-15T16:16:31.809Z,12.03
2019-02-15T16:20:44.738Z,11.13
2019-02-15T16:24:58.278Z,11.53
2019-02-15T16:29:14.164Z,12.03
2019-02-15T16:33:27.568Z,11.97
2019-02-15T16:37:40.443Z,12.57
2019-02-15T16:41:53.913Z,12.67
2019-02-15T16:46:06.409Z,12.47
2019-02-15T16:50:19.320Z,12.93
2019-02-15T16:54:31.892Z,11.63
2019-02-15T16:58:44.343Z,11.90
2019-02-15T17:02:56.976Z,12.07
2019-02-15T17:07:09.437Z,11.67
2019-02-15T17:11:22.476Z,11.43
2019-02-15T17:15:34.973Z,12.10
2019-02-15T17:19:47.376Z,12.63
2019-02-15T17:23:59.709Z,13.00
2019-02-15T17:28:12.491Z,12.27
2019-02-15T17:32:24.953Z,11.40
2019-02-15T17:36:37.354Z,10.70
2019-02-15T17:40:50.311Z,12.13
2019-02-15T17:45:02.803Z,12.17
2019-02-15T17:49:17.425Z,11.67
2019-02-15T17:53:30.363Z,11.37
2019-02-15T17:57:43.179Z,11.13
2019-02-15T18:01:55.544Z,11.30
2019-02-15T18:06:07.947Z,11.83
2019-02-15T18:10:22.293Z,12.10
2019-02-15T18:14:34.897Z,12.43
2019-02-15T18:18:49.278Z,11.70
2019-02-15T18:23:01.963Z,12.93
2019-02-15T18:27:14.334Z,13.80
2019-02-15T18:31:27.115Z,12.40
2019-02-15T18:35:39.578Z,12.13
2019-02-15T18:39:51.875Z,12.67
2019-02-15T18:44:04.554Z,13.77
2019-02-15T18:48:17.125Z,14.00
2019-02-15T18:52:29.440Z,13.53
2019-02-15T18:56:42.759Z,13.93
2019-02-15T19:00:55.356Z,13.37
2019-02-15T19:05:08.686Z,13.23
2019-02-15T19:09:22.169Z,14.30
2019-02-15T19:13:34.486Z,15.33
2019-02-15T19:17:47.436Z,16.30
2019-02-15T19:21:59.934Z,15.13
2019-02-15T19:26:12.345Z,15.77
2019-02-15T19:30:25.959Z,13.90
2019-02-15T19:34:38.665Z,15.33
2019-02-15T19:38:51.133Z,14.53
2019-02-15T19:43:03.960Z,15.93
2019-02-15T19:47:16.765Z,14.97
2019-02-15T19:51:30.316Z,16.30
2019-02-15T19:55:42.757Z,14.43
2019-02-15T19:59:55.692Z,15.80
2019-02-15T20:04:08.177Z,16.00
2019-02-15T20:08:20.588Z,16.27
2019-02-15T20:12:33.384Z,16.57
2019-02-15T20:16:45.844Z,16.33
2019-02-15T20:20:58.898Z,15.23
2019-02-15T20:25:11.865Z,14.07
2019-02-15T20:29:24.576Z,15.17
2019-02-15T20:33:37.050Z,13.80
2019-02-15T20:37:49.447Z,14.27
2019-02-15T20:42:02.333Z,15.13
2019-02-15T20:46:14.792Z,13.83
2019-02-15T20:50:28.335Z,13.30
2019-02-15T20:54:40.875Z,13.83
2019-02-15T20:58:53.701Z,13.13
2019-02-15T21:03:06.199Z,12.47
2019-02-15T21:07:18.513Z,11.67
2019-02-15T21:11:31.412Z,11.90
2019-02-15T21:15:43.859Z,12.80
2019-02-15T21:19:56.369Z,11.03
2019-02-15T21:24:09.234Z,11.90
2019-02-15T21:28:21.852Z,12.53
2019-02-15T21:32:34.701Z,12.10
2019-02-15T21:36:47.256Z,12.37
2019-02-15T21:41:00.696Z,11.33
2019-02-15T21:45:13.236Z,11.40
2019-02-15T21:49:26.109Z,11.53
2019-02-15T21:53:38.755Z,10.73
2019-02-15T21:57:51.203Z,12.00
2019-02-15T22:02:03.968Z,11.07
2019-02-15T22:06:16.436Z,11.50
2019-02-15T22:10:29.414Z,11.37
2019-02-15T22:14:41.973Z,11.13
2019-02-15T22:18:54.481Z,11.33
2019-02-15T22:23:07.381Z,12.03
2019-02-15T22:27:19.893Z,12.37
2019-02-15T22:31:32.712Z,11.40
2019-02-15T22:35:45.274Z,11.47
2019-02-15T22:39:58.268Z,12.43
2019-02-15T22:44:15.898Z,11.97
2019-02-15T22:48:28.836Z,11.87
2019-02-15T22:52:41.179Z,10.90
2019-02-15T22:56:53.677Z,11.90
2019-02-15T23:01:15.701Z,11.53
2019-02-15T23:05:28.178Z,12.23
2019-02-15T23:09:41.047Z,11.33
2019-02-15T23:13:53.505Z,12.30
2019-02-15T23:18:05.813Z,12.17
2019-02-15T23:22:18.722Z,12.53
2019-02-15T23:26:31.270Z,13.17
2019-02-15T23:30:44.321Z,12.93
2019-02-15T23:34:56.807Z,12.80
2019-02-15T23:39:09.230Z,13.03
2019-02-15T23:43:22.113Z,13.63
2019-02-15T23:47:34.677Z,13.63
2019-02-15T23:51:48.216Z,14.03
2019-02-15T23:56:00.525Z,13.87
